createdAt,value
2023-02-06T03:59:08.110Z,5.90
2023-02-06T04:00:09.836Z,7.10
2023-02-06T04:01:08.492Z,5.90
2023-02-06T04:02:10.162Z,8.00
2023-02-06T04:03:08.630Z,6.50
2023-02-06T04:04:08.756Z,6.10
2023-02-06T04:05:08.886Z,8.10
2023-02-06T04:06:08.995Z,6.40
2023-02-06T04:07:10.756Z,7.50
2023-02-06T04:08:10.215Z,7.30
2023-02-06T04:09:10.365Z,6.60
2023-02-06T04:10:09.524Z,7.50
2023-02-06T04:11:09.680Z,7.80
2023-02-06T04:12:09.786Z,6.90
2023-02-06T04:13:11.505Z,7.30
2023-02-06T04:14:11.055Z,7.30
2023-02-06T04:15:11.186Z,7.10
2023-02-06T04:16:11.961Z,7.30
2023-02-06T04:17:14.514Z,8.10
2023-02-06T04:18:11.888Z,7.90
2023-02-06T04:19:10.776Z,7.70
2023-02-06T04:20:10.871Z,7.80
2023-02-06T04:21:11.964Z,7.00
2023-02-06T04:22:11.188Z,6.20
2023-02-06T04:23:12.393Z,6.70
2023-02-06T04:24:13.118Z,7.10
2023-02-06T04:25:11.612Z,7.70
2023-02-06T04:26:11.756Z,6.80
2023-02-06T04:27:13.504Z,6.60
2023-02-06T04:28:13.287Z,7.10
2023-02-06T04:29:12.175Z,7.80
2023-02-06T04:30:13.412Z,5.80
2023-02-06T04:31:12.596Z,6.60
2023-02-06T04:32:12.622Z,5.80
2023-02-06T04:33:12.720Z,6.80
2023-02-06T04:34:12.872Z,6.00
2023-02-06T04:35:14.621Z,7.60
2023-02-06T04:36:13.141Z,5.20
2023-02-06T04:37:14.876Z,7.70
2023-02-06T04:38:14.460Z,5.40
2023-02-06T04:39:13.591Z,6.10
2023-02-06T04:40:15.820Z,6.60
2023-02-06T04:41:13.892Z,6.20
2023-02-06T04:42:13.990Z,5.00
2023-02-06T04:43:15.154Z,6.30
2023-02-06T04:44:15.868Z,5.20
2023-02-06T04:45:14.390Z,5.80
2023-02-06T04:46:14.547Z,5.90
2023-02-06T04:47:16.250Z,5.70
2023-02-06T04:48:15.986Z,4.70
2023-02-06T04:49:14.942Z,6.10
2023-02-06T04:50:16.098Z,5.00
2023-02-06T04:51:15.255Z,6.10
2023-02-06T04:52:15.366Z,5.20
2023-02-06T04:53:16.590Z,6.20
2023-02-06T04:54:15.598Z,6.40
2023-02-06T04:55:17.343Z,6.90
2023-02-06T04:56:17.574Z,5.90
2023-02-06T04:57:16.009Z,5.40
2023-02-06T04:58:16.157Z,5.90
2023-02-06T04:59:16.313Z,4.60
2023-02-06T05:00:16.450Z,5.30
2023-02-06T05:01:18.301Z,4.80
2023-02-06T05:02:16.716Z,4.60
2023-02-06T05:03:17.789Z,5.50
2023-02-06T05:04:17.842Z,5.20
2023-02-06T05:05:18.001Z,4.10
2023-02-06T05:06:18.906Z,4.60
2023-02-06T05:07:17.455Z,4.80
2023-02-06T05:08:17.612Z,4.30
2023-02-06T05:09:17.794Z,5.50
2023-02-06T05:10:18.892Z,4.40
2023-02-06T05:11:19.623Z,4.80
2023-02-06T05:12:18.164Z,3.60
2023-02-06T05:13:19.250Z,3.60
2023-02-06T05:14:18.450Z,4.20
2023-02-06T05:15:19.592Z,4.10
2023-02-06T05:16:20.378Z,4.10
2023-02-06T05:17:20.058Z,3.50
2023-02-06T05:18:19.957Z,3.90
2023-02-06T05:19:19.109Z,3.40
2023-02-06T05:20:19.202Z,3.30
2023-02-06T05:21:20.955Z,3.60
2023-02-06T05:22:19.461Z,3.70
2023-02-06T05:23:19.607Z,3.90
2023-02-06T05:24:19.751Z,3.30
2023-02-06T05:25:19.897Z,4.00
2023-02-06T05:26:21.647Z,3.80
2023-02-06T05:27:20.178Z,3.00
2023-02-06T05:28:21.276Z,2.40
2023-02-06T05:29:20.489Z,3.30
2023-02-06T05:30:22.223Z,2.90
2023-02-06T05:31:20.853Z,3.00
2023-02-06T05:32:20.875Z,2.20
2023-02-06T05:33:21.032Z,2.00
2023-02-06T05:34:21.215Z,3.00
2023-02-06T05:35:21.341Z,3.00
2023-02-06T05:36:23.060Z,2.00
2023-02-06T05:37:21.648Z,2.30
2023-02-06T05:38:22.779Z,2.20
2023-02-06T05:39:21.917Z,1.90
2023-02-06T05:40:21.996Z,2.40
2023-02-06T05:41:23.727Z,2.30
2023-02-06T05:42:22.312Z,2.00
2023-02-06T05:43:22.462Z,2.30
2023-02-06T05:44:24.182Z,1.60
2023-02-06T05:45:22.703Z,1.90
2023-02-06T05:46:23.856Z,1.70
2023-02-06T05:47:23.968Z,2.30
2023-02-06T05:48:23.094Z,2.50
2023-02-06T05:49:23.265Z,1.90
2023-02-06T05:50:24.993Z,1.60
2023-02-06T05:51:23.526Z,1.40
2023-02-06T05:52:23.668Z,1.70
2023-02-06T05:53:25.417Z,1.90
2023-02-06T05:54:23.941Z,1.50
2023-02-06T05:55:24.088Z,2.40
2023-02-06T05:56:25.313Z,1.80
2023-02-06T05:57:25.386Z,2.20
2023-02-06T05:58:26.131Z,1.40
2023-02-06T05:59:24.672Z,1.50
2023-02-06T06:00:24.817Z,1.80
2023-02-06T06:01:24.895Z,2.30
2023-02-06T06:02:25.056Z,2.20
2023-02-06T06:03:26.776Z,1.70
2023-02-06T06:04:25.383Z,1.80
2023-02-06T06:05:25.508Z,1.30
2023-02-06T06:06:25.596Z,1.50
2023-02-06T06:07:27.333Z,1.60
2023-02-06T06:08:28.504Z,1.40
2023-02-06T06:09:26.010Z,1.50
2023-02-06T06:10:26.161Z,1.20
2023-02-06T06:11:26.307Z,1.20
2023-02-06T06:12:26.479Z,1.60
2023-02-06T06:13:28.196Z,1.40
2023-02-06T06:14:28.448Z,1.00
2023-02-06T06:15:28.795Z,1.50
2023-02-06T06:16:28.601Z,1.40
2023-02-06T06:17:28.175Z,1.20
2023-02-06T06:18:28.323Z,2.30
2023-02-06T06:19:27.405Z,1.00
2023-02-06T06:20:28.550Z,1.60
2023-02-06T06:21:29.290Z,1.20
2023-02-06T06:22:27.823Z,1.30
2023-02-06T06:23:27.985Z,1.30
2023-02-06T06:24:29.725Z,1.20
2023-02-06T06:25:28.219Z,2.10
2023-02-06T06:26:28.308Z,1.20
2023-02-06T06:27:29.530Z,1.10
2023-02-06T06:28:28.594Z,1.00
2023-02-06T06:29:29.825Z,0.90
2023-02-06T06:30:28.840Z,1.20
2023-02-06T06:31:29.034Z,1.30
2023-02-06T06:32:30.794Z,1.20
2023-02-06T06:33:29.243Z,1.10
2023-02-06T06:34:30.983Z,1.30
2023-02-06T06:35:30.749Z,0.90
2023-02-06T06:36:29.655Z,1.30
2023-02-06T06:37:29.769Z,1.30
2023-02-06T06:38:30.853Z,1.40
2023-02-06T06:39:30.013Z,1.10
2023-02-06T06:40:31.730Z,1.70
2023-02-06T06:41:31.181Z,0.90
2023-02-06T06:42:31.336Z,0.70
2023-02-06T06:43:32.069Z,1.30
2023-02-06T06:44:32.328Z,1.30
2023-02-06T06:45:32.545Z,1.00
2023-02-06T06:46:31.926Z,1.60
2023-02-06T06:47:32.020Z,1.60
2023-02-06T06:48:32.180Z,1.20
2023-02-06T06:49:31.360Z,1.20
2023-02-06T06:50:33.105Z,1.40
2023-02-06T06:51:32.399Z,1.60
2023-02-06T06:52:31.762Z,1.60
2023-02-06T06:53:33.532Z,1.10
2023-02-06T06:54:31.992Z,1.30
2023-02-06T06:55:33.047Z,1.30
2023-02-06T06:56:32.303Z,1.20
2023-02-06T06:57:32.370Z,1.60
2023-02-06T06:58:34.088Z,1.60
2023-02-06T06:59:32.856Z,1.00
2023-02-06T07:00:32.848Z,2.00
2023-02-06T07:01:32.912Z,1.60
2023-02-06T07:02:34.727Z,1.60
2023-02-06T07:03:34.068Z,2.00
2023-02-06T07:04:35.048Z,1.50
2023-02-06T07:05:33.495Z,2.00
2023-02-06T07:06:34.612Z,2.10
2023-02-06T07:07:35.783Z,1.30
2023-02-06T07:08:36.409Z,1.60
2023-02-06T07:09:33.991Z,1.40
2023-02-06T07:10:34.066Z,1.80
2023-02-06T07:11:35.861Z,1.30
2023-02-06T07:12:35.348Z,1.80
2023-02-06T07:13:36.087Z,1.50
2023-02-06T07:14:35.584Z,1.80
2023-02-06T07:15:36.616Z,1.10
2023-02-06T07:16:36.644Z,1.60
2023-02-06T07:17:36.856Z,1.90
2023-02-06T07:18:35.146Z,1.50
2023-02-06T07:19:36.934Z,1.30
2023-02-06T07:20:37.236Z,2.00
2023-02-06T07:21:36.954Z,1.70
2023-02-06T07:22:37.922Z,1.70
2023-02-06T07:23:36.840Z,1.60
2023-02-06T07:24:37.895Z,2.00
2023-02-06T07:25:36.446Z,1.90
2023-02-06T07:26:38.017Z,1.90
2023-02-06T07:27:38.234Z,2.10
2023-02-06T07:28:36.614Z,2.10
2023-02-06T07:29:36.947Z,1.80
2023-02-06T07:30:36.864Z,2.10
2023-02-06T07:31:39.466Z,2.50
2023-02-06T07:32:37.076Z,1.80
2023-02-06T07:33:37.224Z,2.10
2023-02-06T07:34:38.986Z,2.00
2023-02-06T07:35:37.804Z,1.60
2023-02-06T07:36:37.667Z,1.40
2023-02-06T07:37:37.786Z,1.60
2023-02-06T07:38:37.963Z,2.10
2023-02-06T07:39:40.676Z,1.80
2023-02-06T07:40:46.072Z,1.40
2023-02-06T07:41:41.043Z,2.00
2023-02-06T07:42:38.486Z,2.10
2023-02-06T07:43:38.698Z,2.40
2023-02-06T07:44:41.372Z,2.30
2023-02-06T07:45:40.322Z,2.30
2023-02-06T07:46:41.010Z,1.70
2023-02-06T07:47:39.511Z,1.80
2023-02-06T07:48:41.329Z,2.10
2023-02-06T07:49:41.128Z,1.70
2023-02-06T07:50:39.625Z,1.90
2023-02-06T07:51:39.796Z,1.90
2023-02-06T07:52:40.012Z,2.30
2023-02-06T07:53:41.801Z,2.10
2023-02-06T07:54:40.156Z,1.50
2023-02-06T07:55:42.832Z,1.70
2023-02-06T07:56:45.098Z,2.10
2023-02-06T07:57:42.912Z,2.20
2023-02-06T07:58:41.591Z,2.00
2023-02-06T07:59:43.299Z,1.80
2023-02-06T08:00:45.830Z,1.80
2023-02-06T08:01:42.540Z,2.10
2023-02-06T08:02:41.274Z,2.90
2023-02-06T08:03:42.360Z,2.10
2023-02-06T08:04:44.206Z,2.90
2023-02-06T08:05:44.119Z,2.00
2023-02-06T08:06:42.832Z,2.20
2023-02-06T08:07:41.902Z,2.30
2023-02-06T08:08:43.678Z,3.00
2023-02-06T08:09:45.140Z,2.30
2023-02-06T08:10:42.383Z,1.80
2023-02-06T08:11:42.453Z,2.40
2023-02-06T08:12:43.649Z,3.10
2023-02-06T08:13:43.920Z,1.90
2023-02-06T08:14:42.860Z,2.20
2023-02-06T08:15:46.080Z,2.90
2023-02-06T08:16:43.163Z,2.70
2023-02-06T08:17:44.868Z,2.00
2023-02-06T08:18:47.087Z,2.60
2023-02-06T08:19:44.605Z,2.20
2023-02-06T08:20:46.246Z,2.20
2023-02-06T08:21:45.574Z,2.50
2023-02-06T08:22:45.350Z,2.60
2023-02-06T08:23:45.621Z,3.00
2023-02-06T08:24:45.277Z,2.50
2023-02-06T08:25:45.379Z,2.50
2023-02-06T08:26:44.574Z,3.10
2023-02-06T08:27:45.994Z,2.40
2023-02-06T08:28:47.523Z,2.60
2023-02-06T08:29:48.165Z,2.20
2023-02-06T08:30:47.197Z,3.10
2023-02-06T08:31:46.249Z,2.20
2023-02-06T08:32:45.498Z,2.60
2023-02-06T08:33:46.692Z,2.50
2023-02-06T08:34:49.007Z,2.80
2023-02-06T08:35:47.319Z,2.30
2023-02-06T08:36:46.653Z,3.10
2023-02-06T08:37:46.803Z,2.90
2023-02-06T08:38:46.217Z,2.40
2023-02-06T08:39:48.184Z,2.50
2023-02-06T08:40:46.755Z,2.70
2023-02-06T08:41:46.933Z,2.40
2023-02-06T08:42:47.371Z,2.80
2023-02-06T08:43:46.845Z,2.10
2023-02-06T08:44:48.706Z,3.00
2023-02-06T08:45:47.552Z,3.00
2023-02-06T08:46:47.924Z,2.30
2023-02-06T08:47:47.693Z,3.60
2023-02-06T08:48:47.673Z,2.10
2023-02-06T08:49:49.015Z,3.30
2023-02-06T08:50:48.653Z,2.50
2023-02-06T08:51:47.812Z,2.90
2023-02-06T08:52:48.039Z,3.00
2023-02-06T08:53:48.232Z,3.20
2023-02-06T08:54:50.099Z,3.70
2023-02-06T08:55:49.462Z,2.90
2023-02-06T08:56:48.624Z,2.60
2023-02-06T08:57:48.730Z,3.00
2023-02-06T08:58:48.823Z,2.40
2023-02-06T08:59:51.550Z,2.90
2023-02-06T09:00:49.081Z,3.10
2023-02-06T09:01:49.224Z,2.90
2023-02-06T09:02:49.359Z,2.30
2023-02-06T09:03:50.197Z,3.00
2023-02-06T09:04:49.600Z,3.20
2023-02-06T09:05:54.061Z,3.10
2023-02-06T09:06:50.677Z,3.70
2023-02-06T09:07:50.089Z,2.90
2023-02-06T09:08:51.786Z,3.50
2023-02-06T09:09:51.410Z,3.20
2023-02-06T09:10:50.396Z,2.60
2023-02-06T09:11:54.058Z,3.70
2023-02-06T09:12:53.739Z,3.00
2023-02-06T09:13:51.645Z,3.10
2023-02-06T09:14:51.699Z,2.70
2023-02-06T09:15:51.415Z,4.10
2023-02-06T09:16:52.788Z,3.70
2023-02-06T09:17:54.354Z,3.30
2023-02-06T09:18:53.975Z,4.10
2023-02-06T09:19:51.549Z,3.20
2023-02-06T09:20:54.054Z,3.90
2023-02-06T09:21:52.565Z,3.80
2023-02-06T09:22:53.501Z,3.00
2023-02-06T09:23:52.014Z,4.10
2023-02-06T09:24:54.200Z,3.30
2023-02-06T09:25:54.724Z,2.60
2023-02-06T09:26:59.902Z,3.10
2023-02-06T09:27:57.071Z,2.70
2023-02-06T09:28:55.320Z,3.00
2023-02-06T09:29:53.584Z,3.70
2023-02-06T09:30:55.432Z,3.30
2023-02-06T09:31:56.131Z,3.30
2023-02-06T09:32:55.596Z,3.80
2023-02-06T09:33:55.719Z,2.90
2023-02-06T09:34:54.562Z,3.20
2023-02-06T09:35:53.519Z,3.00
2023-02-06T09:36:53.752Z,2.80
2023-02-06T09:37:55.465Z,3.70
2023-02-06T09:38:55.741Z,3.10
2023-02-06T09:39:55.967Z,2.60
2023-02-06T09:40:55.806Z,3.60
2023-02-06T09:41:57.316Z,3.40
2023-02-06T09:42:55.399Z,4.50
2023-02-06T09:43:57.241Z,2.70
2023-02-06T09:44:54.688Z,5.80
2023-02-06T09:45:55.632Z,4.30
2023-02-06T09:46:54.981Z,3.50
2023-02-06T09:47:56.790Z,3.50
2023-02-06T09:48:56.575Z,2.70
2023-02-06T09:49:55.354Z,4.90
2023-02-06T09:50:57.057Z,3.80
2023-02-06T09:51:57.775Z,4.40
2023-02-06T09:52:58.258Z,5.30
2023-02-06T09:53:57.594Z,3.60
2023-02-06T09:54:56.396Z,4.50
2023-02-06T09:55:58.381Z,3.80
2023-02-06T09:57:03.655Z,3.90
2023-02-06T09:57:56.535Z,4.00
2023-02-06T09:58:57.474Z,4.00
2023-02-06T09:59:57.615Z,3.80
2023-02-06T10:00:59.460Z,4.00
2023-02-06T10:01:59.801Z,4.60
2023-02-06T10:13:26.976Z,4.60
2023-02-06T10:14:28.509Z,4.40
2023-02-06T10:15:28.221Z,5.20
2023-02-06T10:16:28.673Z,4.80
2023-02-06T10:17:28.574Z,4.10
2023-02-06T10:18:29.635Z,3.30
2023-02-06T10:19:28.921Z,5.40
2023-02-06T10:20:31.091Z,4.10
2023-02-06T10:21:28.973Z,5.90
2023-02-06T10:22:28.045Z,4.30
2023-02-06T10:23:30.994Z,4.60
2023-02-06T10:24:28.435Z,4.20
2023-02-06T10:25:30.293Z,3.90
2023-02-06T10:26:29.570Z,4.60
2023-02-06T10:27:28.772Z,5.30
2023-02-06T10:28:29.925Z,3.80
2023-02-06T10:29:29.183Z,4.60
2023-02-06T10:30:31.495Z,6.80
2023-02-06T10:31:31.395Z,3.90
2023-02-06T10:32:30.330Z,5.80
2023-02-06T10:33:29.697Z,6.30
2023-02-06T10:34:29.643Z,5.30
2023-02-06T10:35:30.815Z,6.90
2023-02-06T10:36:31.093Z,7.10
2023-02-06T10:37:31.006Z,5.70
2023-02-06T10:38:30.391Z,5.10
2023-02-06T10:39:30.244Z,6.00
2023-02-06T10:40:31.462Z,7.20
2023-02-06T10:41:30.779Z,6.70
2023-02-06T10:42:30.718Z,7.00
2023-02-06T10:43:31.179Z,6.80
2023-02-06T10:44:30.997Z,8.50
2023-02-06T10:45:31.140Z,7.70
2023-02-06T10:46:31.729Z,6.30
2023-02-06T10:47:31.464Z,8.20
2023-02-06T10:48:33.243Z,7.70
2023-02-06T10:49:35.946Z,7.20
2023-02-06T10:50:33.663Z,8.80
2023-02-06T10:51:32.828Z,7.80
2023-02-06T10:52:31.946Z,9.20
2023-02-06T10:53:36.164Z,9.00
2023-02-06T10:54:34.932Z,9.10
2023-02-06T10:55:32.345Z,8.70
2023-02-06T10:56:36.318Z,8.70
2023-02-06T10:57:32.627Z,8.50
2023-02-06T10:58:34.406Z,10.10
2023-02-06T10:59:33.697Z,9.00
2023-02-06T11:00:33.058Z,9.00
2023-02-06T11:01:33.267Z,8.20
2023-02-06T11:02:34.926Z,7.50
2023-02-06T11:03:34.064Z,10.50
2023-02-06T11:04:33.607Z,7.80
2023-02-06T11:05:33.715Z,8.10
2023-02-06T11:06:35.233Z,8.80
2023-02-06T11:07:33.877Z,10.70
2023-02-06T11:08:33.965Z,9.20
2023-02-06T11:09:34.173Z,9.70
2023-02-06T11:10:35.712Z,7.80
2023-02-06T11:11:35.394Z,8.60
2023-02-06T11:12:35.502Z,10.90
2023-02-06T11:13:35.694Z,8.90
2023-02-06T11:14:35.838Z,11.10
2023-02-06T11:15:36.454Z,6.90
2023-02-06T11:16:36.417Z,9.40
2023-02-06T11:17:36.232Z,9.40
2023-02-06T11:18:36.446Z,10.30
2023-02-06T11:19:36.765Z,9.20
2023-02-06T11:20:37.363Z,9.50
2023-02-06T11:21:37.281Z,9.40
2023-02-06T11:22:51.133Z,11.40
2023-02-06T11:23:37.055Z,10.20
2023-02-06T11:24:37.274Z,10.80
2023-02-06T11:25:37.903Z,10.70
2023-02-06T11:26:37.578Z,10.50
2023-02-06T11:27:38.281Z,11.20
2023-02-06T11:28:38.591Z,11.10
2023-02-06T11:29:40.295Z,11.40
2023-02-06T11:30:39.228Z,9.10
2023-02-06T11:31:38.233Z,10.60
2023-02-06T11:32:39.071Z,9.40
2023-02-06T11:33:39.493Z,10.90
2023-02-06T11:34:38.519Z,8.60
2023-02-06T11:35:39.944Z,9.00
2023-02-06T11:36:38.989Z,12.30
2023-02-06T11:37:38.093Z,8.80
2023-02-06T11:38:38.360Z,9.40
2023-02-06T11:39:39.472Z,10.90
2023-02-06T11:40:38.792Z,9.50
2023-02-06T11:41:40.400Z,11.80
2023-02-06T11:42:42.137Z,11.10
2023-02-06T11:43:39.038Z,10.30
2023-02-06T11:44:39.872Z,10.00
2023-02-06T11:45:39.627Z,9.80
2023-02-06T11:46:41.009Z,9.70
2023-02-06T11:47:39.975Z,8.40
2023-02-06T11:48:40.638Z,7.90
2023-02-06T11:49:41.727Z,9.40
2023-02-06T11:50:41.838Z,11.30
2023-02-06T11:51:41.629Z,10.00
2023-02-06T11:52:41.073Z,10.10
2023-02-06T11:53:41.228Z,10.30
2023-02-06T11:54:41.407Z,10.40
2023-02-06T11:55:41.369Z,9.70
2023-02-06T11:56:42.385Z,9.80
2023-02-06T11:57:40.810Z,9.50
2023-02-06T11:58:41.854Z,9.00
2023-02-06T11:59:42.145Z,9.50
2023-02-06T12:00:43.156Z,7.90
2023-02-06T12:01:43.057Z,8.00
2023-02-06T12:02:41.417Z,8.00
2023-02-06T12:03:43.095Z,8.60
2023-02-06T12:04:41.773Z,8.20
2023-02-06T12:05:41.874Z,9.80
2023-02-06T12:06:41.965Z,8.80
2023-02-06T12:07:43.736Z,8.10
2023-02-06T12:08:43.236Z,8.20
2023-02-06T12:09:42.416Z,7.30
2023-02-06T12:10:42.542Z,8.00
2023-02-06T12:11:44.316Z,8.30
2023-02-06T12:12:44.576Z,8.40
2023-02-06T12:13:43.924Z,8.50
2023-02-06T12:14:43.322Z,7.40
2023-02-06T12:15:47.308Z,6.40
2023-02-06T12:16:47.667Z,6.90
2023-02-06T12:17:45.895Z,7.90
2023-02-06T12:18:51.555Z,7.50
2023-02-06T12:19:47.808Z,9.10
2023-02-06T12:20:44.857Z,6.80
2023-02-06T12:21:44.224Z,8.00
2023-02-06T12:22:46.732Z,7.10
2023-02-06T12:23:44.294Z,6.80
2023-02-06T12:24:45.017Z,7.70
2023-02-06T12:25:45.406Z,7.50
2023-02-06T12:26:46.585Z,8.60
2023-02-06T12:27:45.029Z,6.90
2023-02-06T12:28:45.044Z,7.00
2023-02-06T12:29:48.273Z,8.20
2023-02-06T12:30:45.406Z,6.90
2023-02-06T12:31:45.695Z,7.20
2023-02-06T12:32:45.711Z,9.50
2023-02-06T12:33:46.669Z,7.60
2023-02-06T12:34:47.479Z,7.00
2023-02-06T12:35:46.101Z,7.70
2023-02-06T12:36:47.814Z,7.60
2023-02-06T12:37:48.068Z,7.80
2023-02-06T12:38:46.478Z,7.40
2023-02-06T12:39:46.737Z,7.80
2023-02-06T12:40:48.763Z,8.00
2023-02-06T12:41:46.866Z,7.80
2023-02-06T12:42:48.634Z,7.90
2023-02-06T12:43:47.067Z,7.00
2023-02-06T12:44:47.991Z,6.70
2023-02-06T12:45:47.324Z,7.20
2023-02-06T12:46:48.234Z,7.10
2023-02-06T12:47:49.254Z,5.10
2023-02-06T12:48:47.767Z,7.00
2023-02-06T12:49:47.874Z,7.00
2023-02-06T12:50:49.604Z,7.20
2023-02-06T12:51:48.185Z,6.60
2023-02-06T12:52:48.312Z,7.20
2023-02-06T12:53:50.045Z,7.20
2023-02-06T12:54:48.483Z,7.40
2023-02-06T12:55:48.634Z,7.60
2023-02-06T12:56:49.591Z,6.10
2023-02-06T12:57:48.966Z,6.70
2023-02-06T12:58:50.702Z,6.50
2023-02-06T12:59:58.034Z,6.80
2023-02-06T13:00:50.403Z,7.00
2023-02-06T13:01:49.536Z,8.50
2023-02-06T13:02:50.826Z,6.90
2023-02-06T13:03:51.514Z,7.10
2023-02-06T13:04:50.901Z,6.40
2023-02-06T13:05:51.006Z,5.10
2023-02-06T13:06:50.167Z,5.80
2023-02-06T13:07:51.921Z,6.60
2023-02-06T13:08:50.434Z,5.30
2023-02-06T13:09:50.572Z,6.30
2023-02-06T13:10:50.723Z,8.00
2023-02-06T13:11:52.488Z,6.00
2023-02-06T13:12:51.221Z,6.60
2023-02-06T13:13:51.129Z,7.30
2023-02-06T13:14:51.288Z,6.70
2023-02-06T13:15:51.446Z,6.50
2023-02-06T13:16:53.135Z,6.10
2023-02-06T13:17:52.845Z,6.00
2023-02-06T13:18:51.787Z,6.00
2023-02-06T13:19:51.966Z,6.90
2023-02-06T13:20:53.034Z,5.10
2023-02-06T13:21:53.883Z,7.10
2023-02-06T13:22:53.305Z,6.10
2023-02-06T13:23:52.509Z,4.90
2023-02-06T13:24:52.606Z,5.00
2023-02-06T13:25:52.725Z,6.00
2023-02-06T13:26:54.423Z,4.70
2023-02-06T13:27:54.327Z,5.80
2023-02-06T13:28:54.095Z,6.10
2023-02-06T13:29:53.223Z,4.70
2023-02-06T13:30:54.426Z,6.40
2023-02-06T13:31:53.502Z,4.60
2023-02-06T13:32:54.723Z,5.40
2023-02-06T13:33:53.809Z,6.40
2023-02-06T13:34:54.974Z,6.20
2023-02-06T13:35:55.230Z,4.80
2023-02-06T13:36:54.249Z,6.00
2023-02-06T13:37:55.388Z,5.60
2023-02-06T13:38:55.613Z,4.70
2023-02-06T13:39:54.723Z,5.60
2023-02-06T13:40:54.884Z,5.20
2023-02-06T13:41:55.012Z,5.70
2023-02-06T13:42:56.232Z,5.90
2023-02-06T13:43:56.499Z,6.20
2023-02-06T13:44:55.391Z,5.70
2023-02-06T13:45:55.543Z,5.50
2023-02-06T13:46:55.602Z,6.00
2023-02-06T13:47:55.740Z,5.50
2023-02-06T13:48:56.974Z,5.70
2023-02-06T13:49:55.982Z,5.10
2023-02-06T13:50:57.133Z,5.80
2023-02-06T13:51:56.222Z,7.30
2023-02-06T13:52:57.451Z,6.80
2023-02-06T13:53:57.694Z,6.10
2023-02-06T13:54:58.385Z,5.90
2023-02-06T13:55:56.688Z,5.40
2023-02-06T13:56:56.812Z,7.50
2023-02-06T13:57:58.000Z,6.50
2023-02-06T13:58:58.256Z,6.00
2023-02-06T13:59:57.291Z,6.00
2023-02-06T14:00:57.462Z,5.10
2023-02-06T14:01:58.717Z,5.90
2023-02-06T14:02:57.696Z,7.20
2023-02-06T14:03:58.898Z,6.60
2023-02-06T14:04:58.887Z,6.20
2023-02-06T14:05:59.074Z,7.50
2023-02-06T14:06:59.094Z,6.90
2023-02-06T14:07:58.323Z,9.20
2023-02-06T14:08:59.621Z,7.50
2023-02-06T14:10:00.341Z,8.20
2023-02-06T14:10:58.688Z,9.20
2023-02-06T14:11:58.836Z,7.90
2023-02-06T14:12:58.917Z,6.80
2023-02-06T14:14:00.205Z,7.60
2023-02-06T14:14:59.184Z,7.60
2023-02-06T14:15:59.377Z,7.60
2023-02-06T14:17:01.453Z,7.80
2023-02-06T14:17:59.623Z,8.00
2023-02-06T14:19:00.862Z,7.60
2023-02-06T14:20:01.102Z,9.60
2023-02-06T14:21:00.105Z,9.10
2023-02-06T14:22:01.092Z,8.50
2023-02-06T14:23:01.302Z,6.70
2023-02-06T14:24:01.573Z,8.00
2023-02-06T14:25:02.349Z,6.60
2023-02-06T14:26:01.806Z,8.40
2023-02-06T14:27:01.831Z,8.60
2023-02-06T14:28:02.139Z,9.30
2023-02-06T14:29:02.279Z,9.30
2023-02-06T14:30:02.543Z,8.00
2023-02-06T14:31:02.578Z,6.60
2023-02-06T14:32:03.245Z,6.60
2023-02-06T14:33:02.720Z,7.30
2023-02-06T14:34:02.962Z,8.70
2023-02-06T14:35:02.002Z,8.00
2023-02-06T14:36:02.148Z,8.70
2023-02-06T14:37:02.258Z,9.50
2023-02-06T14:38:03.360Z,8.20
2023-02-06T14:39:03.790Z,9.30
2023-02-06T14:40:04.816Z,9.70
2023-02-06T14:41:03.742Z,8.80
2023-02-06T14:42:03.975Z,8.20
2023-02-06T14:43:03.948Z,8.20
2023-02-06T14:44:04.038Z,10.10
2023-02-06T14:45:04.260Z,7.70
2023-02-06T14:46:07.859Z,9.30
2023-02-06T14:47:03.544Z,8.30
2023-02-06T14:48:03.691Z,7.90
2023-02-06T14:49:04.465Z,12.00
2023-02-06T14:50:05.209Z,6.90
2023-02-06T14:51:05.957Z,8.50
2023-02-06T14:52:05.209Z,7.80
2023-02-06T14:53:04.357Z,8.10
2023-02-06T14:54:05.248Z,8.00
2023-02-06T14:55:04.607Z,8.90
2023-02-06T14:56:05.378Z,7.40
2023-02-06T14:57:05.708Z,8.10
2023-02-06T14:58:05.939Z,7.80
2023-02-06T14:59:07.026Z,9.70
2023-02-06T15:00:05.226Z,9.10
2023-02-06T15:01:06.992Z,7.90
2023-02-06T15:02:05.557Z,6.90
2023-02-06T15:03:07.326Z,8.60
2023-02-06T15:04:05.804Z,7.20
2023-02-06T15:05:07.537Z,7.30
2023-02-06T15:06:06.042Z,10.10
2023-02-06T15:07:06.138Z,7.30
2023-02-06T15:08:06.336Z,9.60
2023-02-06T15:09:06.446Z,7.70
2023-02-06T15:10:08.158Z,8.60
2023-02-06T15:11:07.674Z,7.50
2023-02-06T15:12:08.476Z,8.40
2023-02-06T15:13:06.988Z,8.10
2023-02-06T15:14:08.744Z,8.30
2023-02-06T15:15:07.226Z,7.10
2023-02-06T15:16:09.023Z,9.40
2023-02-06T15:17:07.557Z,7.00
2023-02-06T15:18:08.658Z,8.20
2023-02-06T15:19:08.897Z,9.00
2023-02-06T15:20:07.963Z,8.40
2023-02-06T15:21:09.728Z,7.70
2023-02-06T15:22:08.227Z,8.30
2023-02-06T15:23:17.565Z,7.90
2023-02-06T15:24:11.236Z,6.60
2023-02-06T15:25:08.628Z,8.00
2023-02-06T15:26:09.856Z,8.10
2023-02-06T15:27:08.839Z,7.50
2023-02-06T15:28:10.584Z,7.20
2023-02-06T15:29:09.818Z,7.90
2023-02-06T15:30:10.801Z,7.10
2023-02-06T15:31:11.051Z,9.40
2023-02-06T15:32:09.489Z,8.60
2023-02-06T15:33:10.614Z,8.70
2023-02-06T15:34:11.357Z,8.80
2023-02-06T15:35:09.875Z,8.20
2023-02-06T15:36:11.604Z,8.70
2023-02-06T15:37:11.077Z,8.60
2023-02-06T15:38:11.885Z,8.90
2023-02-06T15:39:10.334Z,8.30
2023-02-06T15:40:12.112Z,9.00
2023-02-06T15:41:12.353Z,9.00
2023-02-06T15:42:10.716Z,9.50
2023-02-06T15:43:12.418Z,8.90
2023-02-06T15:44:12.685Z,8.90
2023-02-06T15:45:12.906Z,8.40
2023-02-06T15:46:13.214Z,9.00
2023-02-06T15:47:12.319Z,9.00
2023-02-06T15:48:13.081Z,8.00
2023-02-06T15:49:12.637Z,9.30
2023-02-06T15:50:12.826Z,7.70
2023-02-06T15:51:13.526Z,9.30
2023-02-06T15:52:13.279Z,8.20
2023-02-06T15:53:12.887Z,7.90
2023-02-06T15:54:12.283Z,9.30
2023-02-06T15:55:12.416Z,8.00
2023-02-06T15:56:12.546Z,9.20
2023-02-06T15:57:13.784Z,7.90
2023-02-06T15:58:13.887Z,9.00
2023-02-06T15:59:14.007Z,8.20
2023-02-06T16:00:14.724Z,9.60
2023-02-06T16:01:14.985Z,7.80
2023-02-06T16:12:38.311Z,9.00
2023-02-06T16:13:38.393Z,10.10
2023-02-06T16:14:40.136Z,7.70
2023-02-06T16:15:40.359Z,7.20
2023-02-06T16:16:38.821Z,9.60
2023-02-06T16:17:38.952Z,9.10
2023-02-06T16:18:39.012Z,9.20
2023-02-06T16:19:39.149Z,10.10
2023-02-06T16:20:40.581Z,7.90
2023-02-06T16:21:39.418Z,9.80
2023-02-06T16:22:39.548Z,9.90
2023-02-06T16:23:39.646Z,10.80
2023-02-06T16:24:41.378Z,9.70
2023-02-06T16:25:41.150Z,11.30
2023-02-06T16:26:40.062Z,10.50
2023-02-06T16:27:40.200Z,10.40
2023-02-06T16:28:41.425Z,10.80
2023-02-06T16:29:40.493Z,10.50
2023-02-06T16:30:40.913Z,10.80
2023-02-06T16:31:42.612Z,12.10
2023-02-06T16:32:43.308Z,10.90
2023-02-06T16:33:41.952Z,12.40
2023-02-06T16:34:42.129Z,11.40
2023-02-06T16:35:42.886Z,10.60
2023-02-06T16:36:43.140Z,11.10
2023-02-06T16:37:44.241Z,10.70
2023-02-06T16:38:48.268Z,13.00
2023-02-06T16:39:42.830Z,12.20
2023-02-06T16:40:43.580Z,11.90
2023-02-06T16:41:42.192Z,12.80
2023-02-06T16:42:43.239Z,12.10
2023-02-06T16:43:42.439Z,12.00
2023-02-06T16:44:45.829Z,11.90
2023-02-06T16:45:42.661Z,12.20
2023-02-06T16:46:43.899Z,11.50
2023-02-06T16:47:43.889Z,13.40
2023-02-06T16:48:44.128Z,11.80
2023-02-06T16:49:44.225Z,12.70
2023-02-06T16:50:44.467Z,12.60
2023-02-06T16:51:43.467Z,12.60
2023-02-06T16:52:43.558Z,11.90
2023-02-06T16:53:43.667Z,12.70
2023-02-06T16:54:43.826Z,12.60
2023-02-06T16:55:43.930Z,14.70
2023-02-06T16:56:45.702Z,13.10
2023-02-06T16:57:44.191Z,13.80
2023-02-06T16:58:44.343Z,13.50
2023-02-06T16:59:44.495Z,13.70
2023-02-06T17:00:44.645Z,14.30
2023-02-06T17:01:46.404Z,13.90
2023-02-06T17:02:46.105Z,14.00
2023-02-06T17:03:45.068Z,14.50
2023-02-06T17:04:46.231Z,15.50
2023-02-06T17:05:45.341Z,13.30
2023-02-06T17:06:45.512Z,13.80
2023-02-06T17:07:46.715Z,13.00
2023-02-06T17:08:46.805Z,12.80
2023-02-06T17:09:47.023Z,13.70
2023-02-06T17:10:46.070Z,14.00
2023-02-06T17:11:46.234Z,12.70
2023-02-06T17:12:46.406Z,13.80
2023-02-06T17:13:48.143Z,11.90
2023-02-06T17:14:47.665Z,11.60
2023-02-06T17:15:47.941Z,12.70
2023-02-06T17:16:46.910Z,12.80
2023-02-06T17:17:47.070Z,11.60
2023-02-06T17:18:48.235Z,11.60
2023-02-06T17:19:47.365Z,11.60
2023-02-06T17:20:49.135Z,11.30
2023-02-06T17:21:47.614Z,12.40
2023-02-06T17:22:49.888Z,11.70
2023-02-06T17:23:49.503Z,11.30
2023-02-06T17:24:49.239Z,12.70
2023-02-06T17:25:48.187Z,12.10
2023-02-06T17:26:48.336Z,12.00
2023-02-06T17:27:49.560Z,10.60
2023-02-06T17:28:49.787Z,12.40
2023-02-06T17:29:48.753Z,10.90
2023-02-06T17:30:49.036Z,11.20
2023-02-06T17:31:50.676Z,11.50
2023-02-06T17:32:50.392Z,11.90
2023-02-06T17:33:50.642Z,10.50
2023-02-06T17:34:49.495Z,11.50
2023-02-06T17:35:49.646Z,10.50